Time;durP1;ratioP1;P1;durP2;ratioP2;P2;SDS_P1;SDS_P2;PMS_P1;PMS_P2;Temp;Humidity;BMP_temperature;BMP_pressure;BME280_temperature;BME280_humidity;BME280_pressure;Samples;Min_cycle;Max_cycle;Signal;HPM_P1;HPM_P2
2021/09/09 00:02:19;;;;;;;13.15;8.52;;;;;;;16.37;70.94;101433.19;10108431;28;20051;-68
2021/09/09 00:07:19;;;;;;;13.80;8.18;;;;;;;16.33;70.95;101427.53;10102483;28;20050;-70
2021/09/09 00:12:15;;;;;;;13.80;9.65;;;;;;;16.28;71.17;101435.22;10110383;28;20534;-70
2021/09/09 00:17:11;;;;;;;13.32;7.88;;;;;;;16.23;71.41;101421.63;10093230;28;20074;-69
2021/09/09 00:22:08;;;;;;;10.73;8.10;;;;;;;16.18;71.82;101420.69;10104952;28;20093;-70
2021/09/09 00:27:05;;;;;;;15.20;8.82;;;;;;;16.13;71.86;101417.31;10113722;28;20081;-68
2021/09/09 00:32:01;;;;;;;12.60;8.35;;;;;;;16.08;72.15;101410.09;10106186;28;20070;-71
2021/09/09 00:36:58;;;;;;;12.02;8.13;;;;;;;16.07;72.38;101408.47;10108441;28;20051;-69
2021/09/09 00:41:54;;;;;;;11.57;8.43;;;;;;;16.03;72.52;101407.53;10102982;28;20094;-68
2021/09/09 00:46:59;;;;;;;12.98;8.95;;;;;;;16.01;72.47;101404.28;10106555;28;20051;-68
2021/09/09 00:51:56;;;;;;;12.80;8.73;;;;;;;16.01;72.77;101404.28;10107235;28;20043;-70
2021/09/09 00:56:53;;;;;;;12.45;9.27;;;;;;;15.99;72.96;101395.56;10108791;28;20043;-69
2021/09/09 01:01:49;;;;;;;12.93;9.63;;;;;;;15.97;72.99;101392.34;10094081;28;20947;-69
2021/09/09 01:06:47;;;;;;;15.75;9.45;;;;;;;15.95;73.14;101386.34;10093304;28;20044;-69
2021/09/09 01:11:44;;;;;;;12.82;9.35;;;;;;;15.89;73.39;101390.44;10107527;28;20070;-71
2021/09/09 01:16:42;;;;;;;13.10;9.18;;;;;;;15.86;73.60;101385.63;10111506;28;20526;-71
2021/09/09 01:21:39;;;;;;;12.40;9.10;;;;;;;15.84;73.64;101387.91;10103584;28;20109;-71
2021/09/09 01:26:48;;;;;;;14.70;10.20;;;;;;;15.80;73.87;101386.97;10100539;28;20070;-71
2021/09/09 01:31:44;;;;;;;15.20;9.90;;;;;;;15.76;74.11;101387.66;10109452;28;20082;-69
2021/09/09 01:36:41;;;;;;;17.65;10.07;;;;;;;15.73;73.96;101382.81;10100557;28;20130;-69
2021/09/09 01:41:37;;;;;;;12.75;10.32;;;;;;;15.72;74.26;101385.91;10108061;28;20689;-69
2021/09/09 01:46:34;;;;;;;16.25;10.10;;;;;;;15.69;74.16;101381.03;10108360;28;20482;-69
2021/09/09 01:51:31;;;;;;;14.45;10.45;;;;;;;15.65;74.47;101380.88;10106304;28;20047;-69
2021/09/09 01:56:27;;;;;;;13.18;10.38;;;;;;;15.63;74.73;101372.13;10103170;28;20414;-68
2021/09/09 02:01:24;;;;;;;15.35;9.82;;;;;;;15.61;74.60;101376.38;10097634;28;20075;-69
2021/09/09 02:06:22;;;;;;;14.80;10.35;;;;;;;15.54;74.99;101365.88;10110972;28;20050;-69
2021/09/09 02:11:20;;;;;;;13.57;10.38;;;;;;;15.51;75.14;101369.31;10107107;28;20050;-70
2021/09/09 02:16:17;;;;;;;15.32;11.07;;;;;;;15.48;75.26;101364.47;10101445;28;20517;-70
2021/09/09 02:21:14;;;;;;;14.55;10.13;;;;;;;15.46;75.38;101367.56;10096079;28;20465;-69
2021/09/09 02:26:10;;;;;;;13.95;10.48;;;;;;;15.44;75.32;101363.53;10107462;28;20034;-70
2021/09/09 02:31:07;;;;;;;18.48;11.80;;;;;;;15.40;75.71;101354.31;10095409;28;20130;-70
2021/09/09 02:36:04;;;;;;;15.65;10.07;;;;;;;15.34;75.82;101343.50;10097682;28;20071;-69
2021/09/09 02:41:01;;;;;;;15.43;11.43;;;;;;;15.33;75.79;101349.34;10104865;28;20126;-68
2021/09/09 02:45:57;;;;;;;15.20;10.57;;;;;;;15.26;75.89;101341.59;10107339;28;20078;-69
2021/09/09 02:50:54;;;;;;;15.90;11.80;;;;;;;15.22;76.20;101335.13;10104028;28;20050;-69
2021/09/09 02:55:50;;;;;;;18.08;11.98;;;;;;;15.17;76.03;101332.59;10104261;28;20137;-69
2021/09/09 03:00:47;;;;;;;17.05;12.35;;;;;;;15.15;76.12;101330.19;10103640;28;20150;-69
2021/09/09 03:05:45;;;;;;;15.63;11.30;;;;;;;15.12;76.25;101321.78;10100920;28;20047;-70
2021/09/09 03:10:41;;;;;;;15.90;12.30;;;;;;;15.08;76.40;101313.34;10107788;28;20074;-69
2021/09/09 03:15:38;;;;;;;16.73;12.45;;;;;;;15.04;76.68;101306.94;10102199;28;20130;-69
2021/09/09 03:20:34;;;;;;;15.88;12.10;;;;;;;15.01;76.61;101313.09;10112580;28;20139;-69
2021/09/09 03:25:31;;;;;;;18.60;12.35;;;;;;;14.98;77.05;101307.44;10107648;28;20480;-68
2021/09/09 03:30:27;;;;;;;15.43;12.93;;;;;;;14.91;76.99;101303.25;10104766;28;20070;-69
2021/09/09 03:35:24;;;;;;;17.58;12.60;;;;;;;14.88;76.83;101295.69;10101682;28;20039;-70
2021/09/09 03:40:20;;;;;;;16.33;12.32;;;;;;;14.86;76.89;101292.44;10113989;28;20640;-70
2021/09/09 03:45:17;;;;;;;17.30;13.40;;;;;;;14.82;76.96;101283.22;10113215;28;20047;-70
2021/09/09 03:50:14;;;;;;;21.67;14.30;;;;;;;14.78;77.53;101276.78;10101533;28;20107;-70
2021/09/09 03:55:11;;;;;;;16.90;13.38;;;;;;;14.75;77.49;101282.94;10103505;28;20101;-68
2021/09/09 04:00:09;;;;;;;17.40;13.80;;;;;;;14.76;77.62;101275.50;10100889;28;20082;-70
2021/09/09 04:05:07;;;;;;;17.10;13.50;;;;;;;14.72;77.64;101261.59;10096130;28;20051;-71
2021/09/09 04:10:04;;;;;;;20.27;13.98;;;;;;;14.70;77.58;101258.38;10112367;28;20110;-69
2021/09/09 04:15:02;;;;;;;17.63;13.25;;;;;;;14.69;77.56;101265.84;10102929;28;20055;-72
2021/09/09 04:19:59;;;;;;;26.35;14.70;;;;;;;14.65;77.80;101261.31;10089706;28;20051;-70
2021/09/09 04:24:56;;;;;;;20.13;13.85;;;;;;;14.62;78.00;101262.81;10083879;28;20491;-71
2021/09/09 04:29:52;;;;;;;20.77;14.55;;;;;;;14.59;78.19;101257.94;10091049;28;20047;-70
2021/09/09 04:34:49;;;;;;;19.23;14.32;;;;;;;14.53;78.47;101249.06;10102861;28;20067;-70
2021/09/09 04:39:46;;;;;;;23.13;16.33;;;;;;;14.52;78.83;101252.91;10099279;28;20043;-69
2021/09/09 04:44:42;;;;;;;19.63;15.48;;;;;;;14.50;78.46;101254.41;10092602;28;20065;-72
2021/09/09 04:49:39;;;;;;;17.92;14.85;;;;;;;14.52;78.53;101246.63;10100266;28;20054;-67
2021/09/09 04:54:36;;;;;;;25.60;15.93;;;;;;;14.53;78.33;101245.50;10100990;28;20051;-67
2021/09/09 04:59:32;;;;;;;20.98;16.45;;;;;;;14.53;78.61;101249.06;10082086;28;20043;-67
2021/09/09 05:04:29;;;;;;;20.70;15.05;;;;;;;14.51;78.70;101240.31;10093798;28;20529;-67
2021/09/09 05:09:29;;;;;;;19.45;15.32;;;;;;;14.52;78.58;101230.13;10096607;28;20042;-69
2021/09/09 05:14:26;;;;;;;20.92;16.63;;;;;;;14.52;78.62;101225.41;10092644;28;20054;-69
2021/09/09 05:19:22;;;;;;;23.40;17.02;;;;;;;14.53;79.06;101240.78;10090174;28;20674;-68
2021/09/09 05:24:19;;;;;;;26.88;17.20;;;;;;;14.52;78.94;101236.41;10094549;28;20408;-66
2021/09/09 05:29:15;;;;;;;21.02;16.05;;;;;;;14.53;78.98;101232.53;10093857;28;20051;-69
2021/09/09 05:34:12;;;;;;;28.60;19.00;;;;;;;14.56;79.11;101230.28;10097363;28;20125;-68
2021/09/09 05:39:08;;;;;;;23.88;18.00;;;;;;;14.56;79.32;101225.59;10101625;28;20043;-68
2021/09/09 05:44:05;;;;;;;25.45;18.13;;;;;;;14.57;79.65;101221.69;10106936;28;20081;-66
2021/09/09 05:49:02;;;;;;;24.48;18.48;;;;;;;14.56;80.31;101213.78;10103913;28;20098;-68
2021/09/09 05:53:59;;;;;;;25.55;17.83;;;;;;;14.64;79.71;101212.91;10099440;28;20447;-69
2021/09/09 05:58:56;;;;;;;28.80;17.73;;;;;;;14.66;80.61;101218.91;10083739;28;20133;-69
2021/09/09 06:03:52;;;;;;;23.95;18.73;;;;;;;14.65;81.30;101211.78;10098987;28;20678;-69
2021/09/09 06:08:49;;;;;;;22.90;17.70;;;;;;;14.76;81.23;101215.78;10100161;28;20155;-69
2021/09/09 06:13:45;;;;;;;29.70;16.90;;;;;;;14.82;80.86;101210.88;10092966;28;20131;-66
2021/09/09 06:18:42;;;;;;;27.45;18.33;;;;;;;14.84;81.03;101206.63;10090131;28;20099;-67
2021/09/09 06:23:38;;;;;;;26.52;16.52;;;;;;;14.97;81.02;101203.94;10090659;28;20167;-69
2021/09/09 06:28:46;;;;;;;20.65;16.73;;;;;;;14.94;81.64;101206.25;10097543;28;20047;-67
2021/09/09 06:33:43;;;;;;;26.42;17.10;;;;;;;15.04;81.74;101206.97;10096153;28;20039;-68
2021/09/09 06:38:39;;;;;;;22.83;18.00;;;;;;;15.08;81.58;101205.16;10097818;28;20047;-68
2021/09/09 06:43:35;;;;;;;21.60;16.63;;;;;;;15.18;81.49;101210.28;10088624;28;20071;-69
2021/09/09 06:48:32;;;;;;;23.15;15.68;;;;;;;15.29;81.39;101208.72;10104483;28;20035;-68
2021/09/09 06:53:29;;;;;;;22.48;15.02;;;;;;;15.41;81.32;101213.47;10104597;28;20078;-69
2021/09/09 06:58:26;;;;;;;22.65;15.73;;;;;;;15.51;81.15;101220.50;10109483;28;20108;-70
2021/09/09 07:03:24;;;;;;;22.25;15.23;;;;;;;15.61;81.07;101220.06;10109686;28;20047;-68
2021/09/09 07:08:21;;;;;;;19.80;14.65;;;;;;;15.70;80.76;101209.78;10113252;28;20375;-70
2021/09/09 07:13:18;;;;;;;20.20;15.07;;;;;;;15.80;80.40;101205.78;10108127;28;20146;-68
2021/09/09 07:18:15;;;;;;;19.75;14.75;;;;;;;15.90;79.99;101204.56;10103228;28;20046;-69
2021/09/09 07:23:11;;;;;;;18.23;13.75;;;;;;;16.02;79.97;101201.81;10109454;28;20547;-69
2021/09/09 07:28:08;;;;;;;19.05;13.48;;;;;;;16.11;79.48;101210.78;10104137;28;20085;-69
2021/09/09 07:33:05;;;;;;;17.10;13.55;;;;;;;16.25;78.83;101209.66;10098589;28;20612;-68
2021/09/09 07:38:02;;;;;;;18.63;13.48;;;;;;;16.39;78.08;101194.34;10095765;28;20102;-69
2021/09/09 07:42:59;;;;;;;16.48;12.52;;;;;;;16.54;77.98;101194.81;10103069;28;20045;-69
2021/09/09 07:47:55;;;;;;;18.63;12.45;;;;;;;16.67;77.19;101192.84;10111299;28;20039;-69
2021/09/09 07:52:52;;;;;;;17.08;11.82;;;;;;;16.80;77.01;101194.44;10107100;28;20050;-69
2021/09/09 07:57:48;;;;;;;16.38;11.38;;;;;;;16.96;77.00;101195.31;10109087;28;20042;-68
2021/09/09 08:02:45;;;;;;;16.83;12.27;;;;;;;17.09;76.33;101198.84;10113616;28;20094;-69
2021/09/09 08:07:43;;;;;;;17.55;11.77;;;;;;;17.28;74.50;101189.91;10102910;28;20385;-68
2021/09/09 08:12:44;;;;;;;14.55;11.20;;;;;;;17.41;75.14;101202.53;10094301;28;20400;-67
2021/09/09 08:17:40;;;;;;;14.18;11.15;;;;;;;17.55;74.59;101193.81;10103005;28;20117;-70
2021/09/09 08:22:37;;;;;;;15.38;12.13;;;;;;;17.72;73.72;101198.22;10099060;28;20039;-69
2021/09/09 08:27:33;;;;;;;17.85;11.90;;;;;;;17.84;73.93;101195.41;10099303;28;20122;-65
2021/09/09 08:32:30;;;;;;;17.90;11.18;;;;;;;17.98;73.93;101200.50;10108400;28;20047;-69
2021/09/09 08:37:27;;;;;;;15.45;11.77;;;;;;;18.11;72.65;101195.69;10107243;28;20141;-69
2021/09/09 08:42:23;;;;;;;14.27;10.10;;;;;;;18.26;72.15;101205.97;10107413;28;20565;-69
2021/09/09 08:47:23;;;;;;;12.65;9.57;;;;;;;18.40;72.08;101199.13;10106502;28;20518;-68
2021/09/09 08:52:19;;;;;;;13.73;9.13;;;;;;;18.55;71.60;101190.00;10101386;28;20455;-68
2021/09/09 08:57:22;;;;;;;12.02;8.52;;;;;;;18.72;71.29;101189.59;10095709;28;20522;-68
2021/09/09 09:02:20;;;;;;;18.38;9.27;;;;;;;18.91;70.03;101179.72;10099096;28;20058;-69
2021/09/09 09:07:29;;;;;;;13.43;9.38;;;;;;;19.09;69.83;101174.56;10093471;28;20201;-68
2021/09/09 09:12:44;;;;;;;11.85;8.05;;;;;;;19.29;68.95;101170.63;10093506;28;20208;-68
2021/09/09 09:18:02;;;;;;;12.27;8.15;;;;;;;19.46;67.82;101155.47;10094507;28;20049;-69
2021/09/09 09:23:18;;;;;;;13.63;8.05;;;;;;;19.72;65.43;101151.22;10092448;28;20137;-69
2021/09/09 09:28:35;;;;;;;11.68;8.18;;;;;;;19.76;64.67;101163.19;10096642;28;20093;-67
2021/09/09 09:33:56;;;;;;;11.20;5.82;;;;;;;19.78;64.66;101144.19;10103534;28;20047;-69
2021/09/09 09:38:56;;;;;;;9.30;6.88;;;;;;;19.93;65.23;101151.56;10097246;28;20094;-69
2021/09/09 09:43:55;;;;;;;10.63;6.82;;;;;;;20.13;63.92;101154.28;10095371;28;20545;-69
2021/09/09 09:48:52;;;;;;;12.07;6.70;;;;;;;20.33;63.65;101146.63;10097182;28;20499;-70
2021/09/09 09:54:06;;;;;;;12.10;7.35;;;;;;;20.57;62.24;101139.88;10098495;28;20039;-68
2021/09/09 09:59:03;;;;;;;10.13;6.20;;;;;;;20.80;61.50;101126.69;10094964;28;20082;-68
2021/09/09 10:04:05;;;;;;;10.85;5.57;;;;;;;21.07;59.56;101134.94;10101609;28;20082;-68
2021/09/09 10:09:10;;;;;;;10.75;6.18;;;;;;;21.23;56.18;101129.97;10110096;28;20145;-69
2021/09/09 10:14:09;;;;;;;10.05;6.30;;;;;;;21.33;54.23;101124.91;10112289;28;20597;-68
2021/09/09 10:19:10;;;;;;;12.38;6.85;;;;;;;21.56;54.90;101114.44;10112689;28;20046;-69
2021/09/09 10:24:17;;;;;;;12.23;7.20;;;;;;;21.81;57.25;101111.06;10113741;28;20058;-70
2021/09/09 10:29:45;;;;;;;10.50;6.20;;;;;;;22.43;56.06;101108.31;10096357;28;20054;-70
2021/09/09 10:34:41;;;;;;;14.60;6.07;;;;;;;23.63;53.34;101107.53;10103042;28;21609;-70
2021/09/09 10:39:39;;;;;;;11.30;6.10;;;;;;;24.25;49.76;101100.69;10111416;28;20053;-69
2021/09/09 10:44:48;;;;;;;10.40;6.25;;;;;;;24.72;47.72;101106.97;10102481;28;20082;-71
2021/09/09 10:49:45;;;;;;;8.07;5.25;;;;;;;25.37;47.32;101097.03;10106951;28;20047;-71
2021/09/09 10:55:02;;;;;;;11.40;5.97;;;;;;;26.12;47.88;101090.00;10101027;28;20051;-69
2021/09/09 11:00:03;;;;;;;13.30;5.20;;;;;;;26.03;42.07;101095.31;10100571;28;20054;-71
2021/09/09 11:05:05;;;;;;;10.32;5.68;;;;;;;25.79;43.25;101089.50;10109708;28;20166;-69
2021/09/09 11:10:10;;;;;;;8.30;5.22;;;;;;;25.38;41.57;101087.41;10102129;28;20051;-71
2021/09/09 11:15:33;;;;;;;10.50;5.70;;;;;;;25.01;39.15;101079.66;10097368;28;20096;-71
2021/09/09 11:20:30;;;;;;;8.77;5.47;;;;;;;24.97;43.17;101082.47;10089489;28;20051;-72
2021/09/09 11:25:32;;;;;;;11.32;6.32;;;;;;;24.97;43.54;101074.09;10094085;28;20070;-71
2021/09/09 11:30:29;;;;;;;9.55;5.95;;;;;;;25.10;43.52;101068.00;10102426;28;20050;-72
2021/09/09 11:35:25;;;;;;;8.25;5.97;;;;;;;25.27;41.98;101061.50;10105037;28;20047;-72
2021/09/09 11:40:22;;;;;;;9.90;6.05;;;;;;;25.31;40.83;101069.91;10103956;28;20089;-71
2021/09/09 11:45:19;;;;;;;7.72;5.55;;;;;;;25.33;42.39;101062.69;10111331;28;20106;-70
2021/09/09 11:50:16;;;;;;;9.45;6.28;;;;;;;25.46;42.01;101064.97;10104768;28;20452;-69
2021/09/09 11:55:16;;;;;;;11.30;6.57;;;;;;;25.62;41.98;101056.84;10108282;28;20101;-71
2021/09/09 12:00:14;;;;;;;7.80;6.00;;;;;;;25.79;42.86;101055.91;10096222;28;20085;-70
2021/09/09 12:05:15;;;;;;;11.25;6.63;;;;;;;25.92;41.32;101049.78;10101933;28;20074;-70
2021/09/09 12:10:21;;;;;;;14.00;6.60;;;;;;;26.23;44.54;101054.25;10101777;28;20043;-70
2021/09/09 12:15:23;;;;;;;10.98;6.53;;;;;;;26.79;44.16;101047.59;10086838;28;20663;-70
2021/09/09 12:20:25;;;;;;;9.55;6.13;;;;;;;27.63;43.29;101043.09;10090969;28;20047;-71
2021/09/09 12:25:28;;;;;;;11.82;6.75;;;;;;;28.31;42.39;101037.03;10089238;28;20118;-71
2021/09/09 12:30:36;;;;;;;9.80;5.78;;;;;;;28.53;40.25;101026.16;10092910;28;20047;-72
2021/09/09 12:35:33;;;;;;;12.32;6.45;;;;;;;28.39;40.99;101031.25;10103472;28;20093;-71
2021/09/09 12:40:56;;;;;;;10.85;6.40;;;;;;;28.52;39.74;101018.13;10100251;28;20042;-71
2021/09/09 12:45:53;;;;;;;9.50;5.90;;;;;;;28.44;37.53;101022.31;10104264;28;20093;-72
2021/09/09 12:50:54;;;;;;;8.65;6.07;;;;;;;28.60;36.75;101018.78;10098580;28;20082;-71
2021/09/09 12:55:56;;;;;;;11.23;6.20;;;;;;;29.23;37.00;101009.31;10087250;28;20055;-69
2021/09/09 13:00:54;;;;;;;;;;;;;;;29.38;37.22;101010.53;10082005;28;20483;-71
2021/09/09 13:05:51;;;;;;;9.18;5.95;;;;;;;28.84;37.92;101006.16;10083501;28;20301;-68
2021/09/09 13:10:47;;;;;;;11.13;5.68;;;;;;;28.50;34.00;101003.72;10087800;28;20047;-70
2021/09/09 13:15:45;;;;;;;8.88;6.18;;;;;;;28.57;35.47;100997.97;10096300;28;20101;-71
2021/09/09 13:21:01;;;;;;;8.23;5.60;;;;;;;28.75;37.41;100997.53;10088953;28;20510;-70
2021/09/09 13:25:58;;;;;;;10.27;5.63;;;;;;;28.90;38.58;100998.00;10095103;28;20150;-71
2021/09/09 13:30:54;;;;;;;12.43;5.85;;;;;;;29.35;36.38;100977.63;10091556;28;20102;-69
2021/09/09 13:35:51;;;;;;;11.85;5.82;;;;;;;29.48;36.79;100981.31;10090661;28;20794;-70
2021/09/09 13:40:47;;;;;;;6.65;5.38;;;;;;;29.14;33.19;100984.59;10100160;28;20050;-71
2021/09/09 13:45:44;;;;;;;8.40;5.22;;;;;;;29.16;38.27;100982.91;10096604;28;20414;-70
2021/09/09 13:50:40;;;;;;;10.38;5.75;;;;;;;28.77;34.82;100989.44;10093670;28;20047;-71
2021/09/09 13:55:37;;;;;;;6.82;5.18;;;;;;;28.12;31.92;100973.16;10097370;28;20122;-72
2021/09/09 14:00:36;;;;;;;7.53;5.00;;;;;;;28.03;32.12;100967.31;10102972;28;20046;-73
2021/09/09 14:05:34;;;;;;;6.90;4.85;;;;;;;28.06;33.66;100966.47;10106424;28;21371;-73
2021/09/09 14:10:31;;;;;;;6.03;4.47;;;;;;;28.34;35.36;100967.91;10095805;28;20651;-72
2021/09/09 14:15:27;;;;;;;9.52;5.28;;;;;;;28.40;36.29;100965.34;10103319;28;20047;-71
2021/09/09 14:20:24;;;;;;;8.88;5.05;;;;;;;28.28;38.64;100959.16;10102191;28;20624;-73
2021/09/09 14:25:20;;;;;;;8.48;5.30;;;;;;;28.15;36.73;100961.03;10090639;28;20074;-72
2021/09/09 14:30:17;;;;;;;8.50;5.32;;;;;;;27.91;36.68;100958.31;10098871;28;20495;-72
2021/09/09 14:35:14;;;;;;;6.75;4.45;;;;;;;27.94;41.95;100955.88;10093542;28;20051;-73
2021/09/09 14:40:11;;;;;;;7.63;5.22;;;;;;;27.89;35.76;100952.34;10096351;28;20094;-72
2021/09/09 14:45:08;;;;;;;8.70;4.75;;;;;;;27.71;33.37;100951.88;10090183;28;20055;-72
2021/09/09 14:50:05;;;;;;;6.97;4.90;;;;;;;27.64;41.05;100960.41;10094647;28;20103;-71
2021/09/09 14:55:03;;;;;;;8.63;5.38;;;;;;;27.41;34.55;100948.03;10107455;28;20098;-73
2021/09/09 14:59:59;;;;;;;11.45;5.88;;;;;;;27.36;40.47;100959.72;10110587;28;20097;-73
2021/09/09 15:04:56;;;;;;;9.00;5.07;;;;;;;27.26;41.79;100957.91;10113023;28;20121;-72
2021/09/09 15:09:52;;;;;;;10.30;5.68;;;;;;;27.19;43.59;100947.56;10106067;28;20131;-72
2021/09/09 15:14:53;;;;;;;8.52;5.13;;;;;;;27.21;38.17;100944.38;10111180;28;20050;-72
2021/09/09 15:19:49;;;;;;;9.43;5.25;;;;;;;27.25;41.01;100939.50;10108590;28;20467;-72
2021/09/09 15:24:46;;;;;;;9.95;5.43;;;;;;;27.22;44.32;100929.91;10109021;28;20047;-72
2021/09/09 15:29:45;;;;;;;7.25;5.28;;;;;;;27.36;42.89;100934.44;10108703;28;20067;-71
2021/09/09 15:34:42;;;;;;;7.68;5.32;;;;;;;27.52;41.43;100936.56;10108008;28;20078;-72
2021/09/09 15:39:39;;;;;;;9.77;5.32;;;;;;;27.53;43.76;100920.53;10110644;28;20077;-73
2021/09/09 15:44:37;;;;;;;10.43;5.80;;;;;;;27.49;40.45;100921.38;10105980;28;20475;-72
2021/09/09 15:49:33;;;;;;;7.10;4.97;;;;;;;27.46;39.22;100922.25;10106297;28;20086;-72
2021/09/09 15:54:30;;;;;;;8.18;5.68;;;;;;;27.39;38.33;100921.59;10104712;28;20137;-68
2021/09/09 15:59:27;;;;;;;10.80;5.57;;;;;;;27.22;40.67;100917.88;10107457;28;20477;-72
2021/09/09 16:04:23;;;;;;;11.15;6.47;;;;;;;27.07;42.21;100906.09;10100189;28;20101;-72
2021/09/09 16:09:20;;;;;;;12.02;6.07;;;;;;;26.94;43.92;100914.31;10102324;28;20042;-71
2021/09/09 16:14:17;;;;;;;11.07;5.40;;;;;;;26.90;45.30;100913.59;10104396;28;20062;-71
2021/09/09 16:19:13;;;;;;;13.38;5.28;;;;;;;26.81;45.13;100916.94;10105111;28;20050;-73
2021/09/09 16:24:10;;;;;;;7.30;5.50;;;;;;;26.65;47.56;100913.97;10107054;28;20510;-71
2021/09/09 16:29:06;;;;;;;9.60;5.72;;;;;;;26.33;48.09;100904.00;10097532;28;20130;-72
2021/09/09 16:34:03;;;;;;;11.40;6.78;;;;;;;25.95;46.30;100906.13;10093849;28;20110;-71
2021/09/09 16:38:59;;;;;;;8.85;5.80;;;;;;;25.73;45.63;100911.13;10089725;28;20503;-71
2021/09/09 16:43:57;;;;;;;10.80;5.60;;;;;;;25.54;46.25;100904.16;10085766;28;20510;-71
2021/09/09 16:48:57;;;;;;;11.23;6.20;;;;;;;25.35;46.08;100899.97;10088419;28;20038;-72
2021/09/09 16:53:53;;;;;;;9.15;6.25;;;;;;;25.18;47.80;100893.31;10098098;28;20125;-72
2021/09/09 16:58:54;;;;;;;9.27;6.40;;;;;;;25.03;46.64;100897.44;10088192;28;20047;-72
2021/09/09 17:03:51;;;;;;;10.43;6.00;;;;;;;24.93;49.06;100887.94;10094954;28;20047;-72
2021/09/09 17:08:48;;;;;;;7.85;6.20;;;;;;;24.80;49.55;100887.63;10088902;28;20157;-72
2021/09/09 17:13:44;;;;;;;13.68;7.03;;;;;;;24.66;49.35;100880.13;10095766;28;20114;-72
2021/09/09 17:18:41;;;;;;;9.73;6.00;;;;;;;24.54;50.09;100894.59;10088268;28;20161;-71
2021/09/09 17:23:37;;;;;;;9.32;6.25;;;;;;;24.40;50.41;100898.25;10097210;28;20093;-72
2021/09/09 17:28:34;;;;;;;11.65;7.13;;;;;;;24.26;50.98;100895.56;10101759;28;20365;-71
2021/09/09 17:33:30;;;;;;;10.68;7.20;;;;;;;24.10;51.22;100905.19;10100014;28;20053;-72
2021/09/09 17:38:28;;;;;;;9.40;7.50;;;;;;;23.94;51.08;100899.28;10087275;28;20122;-71
2021/09/09 17:43:24;;;;;;;12.73;6.95;;;;;;;23.81;51.76;100906.50;10087727;28;20110;-72
2021/09/09 17:48:21;;;;;;;9.82;6.97;;;;;;;23.66;51.88;100911.31;10085341;28;20047;-72
2021/09/09 17:53:17;;;;;;;11.27;6.97;;;;;;;23.51;51.97;100918.94;10088856;28;20055;-69
2021/09/09 17:58:15;;;;;;;14.35;7.65;;;;;;;23.40;52.10;100920.97;10087853;28;20046;-72
2021/09/09 18:03:18;;;;;;;10.88;8.27;;;;;;;23.24;52.59;100926.94;10097076;28;20530;-72
2021/09/09 18:08:16;;;;;;;14.52;8.05;;;;;;;23.10;52.45;100919.38;10094137;28;20578;-70
2021/09/09 18:13:12;;;;;;;12.07;8.65;;;;;;;22.98;52.95;100930.91;10085523;28;20419;-72
2021/09/09 18:18:09;;;;;;;15.07;9.02;;;;;;;22.85;53.30;100931.28;10089102;28;20051;-69
2021/09/09 18:23:05;;;;;;;14.93;8.13;;;;;;;22.70;53.37;100926.91;10093378;28;20142;-70
2021/09/09 18:28:02;;;;;;;15.55;8.48;;;;;;;22.58;53.65;100930.06;10098056;28;20058;-69
2021/09/09 18:32:59;;;;;;;14.05;9.73;;;;;;;22.45;54.51;100927.66;10108555;28;20450;-72
2021/09/09 18:37:55;;;;;;;15.30;10.02;;;;;;;22.34;54.74;100932.38;10103633;28;20039;-72
2021/09/09 18:42:52;;;;;;;13.95;10.25;;;;;;;22.24;54.80;100938.72;10104976;28;20161;-71
2021/09/09 18:47:50;;;;;;;15.60;10.63;;;;;;;22.13;55.21;100933.06;10100210;28;20210;-72
2021/09/09 18:52:46;;;;;;;13.50;10.20;;;;;;;22.03;55.45;100934.63;10101889;28;20051;-73
2021/09/09 18:57:43;;;;;;;18.90;10.23;;;;;;;21.93;55.95;100940.97;10105137;28;20047;-71
2021/09/09 19:02:39;;;;;;;15.82;10.30;;;;;;;21.83;56.24;100938.91;10105342;28;20124;-71
2021/09/09 19:07:37;;;;;;;15.27;10.30;;;;;;;21.74;57.00;100939.25;10102780;28;20035;-72
2021/09/09 19:12:34;;;;;;;18.90;11.65;;;;;;;21.66;57.19;100947.97;10110379;28;20589;-72
2021/09/09 19:17:30;;;;;;;15.75;11.20;;;;;;;21.56;57.01;100944.72;10107151;28;20070;-72
2021/09/09 19:22:26;;;;;;;14.70;10.93;;;;;;;21.49;57.27;100950.25;10102116;28;20098;-71
2021/09/09 19:27:23;;;;;;;14.23;10.80;;;;;;;21.43;57.87;100952.56;10094583;28;20051;-68
2021/09/09 19:32:19;;;;;;;16.13;10.70;;;;;;;21.37;58.01;100959.63;10109113;28;20047;-71
2021/09/09 19:37:16;;;;;;;16.25;11.70;;;;;;;21.31;58.26;100950.06;10105494;28;20089;-70
2021/09/09 19:42:13;;;;;;;16.75;12.02;;;;;;;21.27;58.66;100959.56;10088321;28;20474;-71
2021/09/09 19:47:09;;;;;;;15.80;11.07;;;;;;;21.20;59.06;100955.53;10093930;28;20066;-70
2021/09/09 19:52:06;;;;;;;17.60;10.82;;;;;;;21.15;58.81;100961.47;10096335;28;20089;-70
2021/09/09 19:57:02;;;;;;;16.35;11.20;;;;;;;21.12;59.28;100962.25;10098027;28;20141;-70
2021/09/09 20:01:59;;;;;;;15.30;11.30;;;;;;;21.06;59.51;100955.44;10097802;28;20042;-71
2021/09/09 20:06:56;;;;;;;17.52;11.07;;;;;;;21.00;59.44;100962.50;10092106;28;20043;-70
2021/09/09 20:11:53;;;;;;;16.98;10.70;;;;;;;20.94;60.04;100953.75;10082917;28;20566;-69
2021/09/09 20:16:50;;;;;;;15.05;11.15;;;;;;;20.88;60.36;100960.03;10088404;28;20051;-70
2021/09/09 20:21:46;;;;;;;14.02;10.40;;;;;;;20.80;60.42;100965.50;10093524;28;20054;-70
2021/09/09 20:26:43;;;;;;;16.90;10.38;;;;;;;20.72;60.35;100966.63;10097316;28;20047;-70
2021/09/09 20:31:39;;;;;;;13.93;10.07;;;;;;;20.65;61.16;100962.97;10099053;28;20109;-70
2021/09/09 20:36:36;;;;;;;14.77;11.15;;;;;;;20.58;61.26;100964.50;10100789;28;20051;-70
2021/09/09 20:41:32;;;;;;;16.17;11.00;;;;;;;20.52;61.39;100959.63;10104587;28;20067;-69
2021/09/09 20:46:29;;;;;;;14.68;9.80;;;;;;;20.46;61.62;100959.16;10100308;28;20078;-70
2021/09/09 20:51:26;;;;;;;16.50;10.50;;;;;;;20.42;61.60;100960.31;10104694;28;20043;-70
2021/09/09 20:56:22;;;;;;;15.05;11.40;;;;;;;20.34;61.90;100971.31;10099100;28;20126;-70
2021/09/09 21:01:18;;;;;;;14.63;10.30;;;;;;;20.28;61.86;100970.06;10101970;28;20082;-72
2021/09/09 21:06:17;;;;;;;14.13;10.18;;;;;;;20.23;62.29;100966.81;10107959;28;20043;-70
2021/09/09 21:11:14;;;;;;;17.08;11.40;;;;;;;20.14;62.63;100967.94;10101676;28;20499;-70
2021/09/09 21:16:13;;;;;;;13.25;10.38;;;;;;;20.08;62.81;100971.41;10101858;28;20051;-69
2021/09/09 21:21:09;;;;;;;16.63;12.35;;;;;;;20.00;62.92;100972.47;10104872;28;20049;-69
2021/09/09 21:26:06;;;;;;;17.27;12.70;;;;;;;19.91;63.30;100976.34;10092626;28;20101;-69
2021/09/09 21:31:03;;;;;;;18.77;11.75;;;;;;;19.84;63.71;100970.69;10098960;28;20047;-69
2021/09/09 21:36:00;;;;;;;14.77;12.50;;;;;;;19.78;63.79;100972.19;10102714;28;20058;-70
2021/09/09 21:40:57;;;;;;;16.90;11.57;;;;;;;19.71;64.18;100972.09;10105844;28;20043;-70
2021/09/09 21:45:53;;;;;;;19.15;12.50;;;;;;;19.63;64.36;100964.78;10099774;28;20075;-70
2021/09/09 21:50:50;;;;;;;19.30;11.98;;;;;;;19.59;64.64;100972.25;10098553;28;20477;-70
2021/09/09 21:55:46;;;;;;;19.73;12.35;;;;;;;19.51;64.96;100972.16;10102485;28;20073;-70
2021/09/09 22:00:43;;;;;;;16.30;12.60;;;;;;;19.45;65.29;100976.44;10095733;28;20151;-68
2021/09/09 22:05:39;;;;;;;15.75;12.57;;;;;;;19.37;65.50;100971.94;10102892;28;20137;-68
2021/09/09 22:10:36;;;;;;;17.25;12.75;;;;;;;19.34;65.83;100981.00;10107543;28;20454;-67
2021/09/09 22:15:32;;;;;;;19.30;12.80;;;;;;;19.28;65.83;100982.47;10104170;28;20077;-68
2021/09/09 22:20:29;;;;;;;15.93;12.00;;;;;;;19.24;66.32;100970.50;10105538;28;20070;-68
2021/09/09 22:25:25;;;;;;;17.23;13.00;;;;;;;19.18;66.30;100975.59;10102322;28;20043;-70
2021/09/09 22:30:22;;;;;;;17.77;12.98;;;;;;;19.14;66.60;100983.81;10094313;28;20051;-68